sensor_id;sensor_type;location;lat;lon;timestamp;P1;durP1;ratioP1;P2;durP2;ratioP2
679;SDS011;322;48.846;9.230;2023-09-08T00:01:39;15.73;;;9.87;;
679;SDS011;322;48.846;9.230;2023-09-08T00:04:07;14.10;;;8.47;;
679;SDS011;322;48.846;9.230;2023-09-08T00:06:35;13.87;;;8.17;;
679;SDS011;322;48.846;9.230;2023-09-08T00:09:04;14.23;;;8.43;;
679;SDS011;322;48.846;9.230;2023-09-08T00:11:32;15.37;;;10.00;;
679;SDS011;322;48.846;9.230;2023-09-08T00:14:00;18.60;;;9.57;;
679;SDS011;322;48.846;9.230;2023-09-08T00:16:29;14.90;;;9.33;;
679;SDS011;322;48.846;9.230;2023-09-08T00:18:58;13.33;;;8.90;;
679;SDS011;322;48.846;9.230;2023-09-08T00:21:26;18.70;;;10.50;;
679;SDS011;322;48.846;9.230;2023-09-08T00:23:54;15.03;;;10.07;;
679;SDS011;322;48.846;9.230;2023-09-08T00:26:24;14.57;;;9.70;;
679;SDS011;322;48.846;9.230;2023-09-08T00:28:52;16.67;;;10.00;;
679;SDS011;322;48.846;9.230;2023-09-08T00:31:20;14.20;;;8.73;;
679;SDS011;322;48.846;9.230;2023-09-08T00:33:47;15.80;;;9.40;;
679;SDS011;322;48.846;9.230;2023-09-08T00:36:16;17.17;;;9.00;;
679;SDS011;322;48.846;9.230;2023-09-08T00:38:44;14.73;;;8.23;;
679;SDS011;322;48.846;9.230;2023-09-08T00:41:12;16.43;;;9.13;;
679;SDS011;322;48.846;9.230;2023-09-08T00:43:41;13.93;;;8.60;;
679;SDS011;322;48.846;9.230;2023-09-08T00:46:09;13.60;;;8.70;;
679;SDS011;322;48.846;9.230;2023-09-08T00:48:39;15.17;;;8.73;;
679;SDS011;322;48.846;9.230;2023-09-08T00:51:07;15.57;;;8.77;;
679;SDS011;322;48.846;9.230;2023-09-08T00:53:36;15.10;;;9.60;;
679;SDS011;322;48.846;9.230;2023-09-08T00:56:04;14.33;;;8.47;;
679;SDS011;322;48.846;9.230;2023-09-08T00:58:32;13.03;;;8.37;;
679;SDS011;322;48.846;9.230;2023-09-08T01:01:03;14.90;;;8.30;;
679;SDS011;322;48.846;9.230;2023-09-08T01:03:32;12.00;;;7.93;;
679;SDS011;322;48.846;9.230;2023-09-08T01:06:00;15.30;;;8.10;;
679;SDS011;322;48.846;9.230;2023-09-08T01:08:29;13.50;;;8.07;;
679;SDS011;322;48.846;9.230;2023-09-08T01:10:57;13.90;;;8.13;;
679;SDS011;322;48.846;9.230;2023-09-08T01:13:25;14.20;;;8.60;;
679;SDS011;322;48.846;9.230;2023-09-08T01:15:53;14.50;;;8.80;;
679;SDS011;322;48.846;9.230;2023-09-08T01:18:22;16.23;;;8.87;;
679;SDS011;322;48.846;9.230;2023-09-08T01:20:59;16.27;;;9.80;;
679;SDS011;322;48.846;9.230;2023-09-08T01:23:42;13.83;;;9.13;;
679;SDS011;322;48.846;9.230;2023-09-08T01:26:26;16.07;;;9.20;;
679;SDS011;322;48.846;9.230;2023-09-08T01:28:57;16.57;;;10.10;;
679;SDS011;322;48.846;9.230;2023-09-08T01:31:26;14.83;;;9.50;;
679;SDS011;322;48.846;9.230;2023-09-08T01:33:54;14.97;;;9.50;;
679;SDS011;322;48.846;9.230;2023-09-08T01:36:22;14.47;;;9.17;;
679;SDS011;322;48.846;9.230;2023-09-08T01:38:50;14.40;;;9.00;;
679;SDS011;322;48.846;9.230;2023-09-08T01:41:18;14.20;;;8.33;;
679;SDS011;322;48.846;9.230;2023-09-08T01:43:47;18.43;;;9.60;;
679;SDS011;322;48.846;9.230;2023-09-08T01:46:15;13.97;;;9.40;;
679;SDS011;322;48.846;9.230;2023-09-08T01:48:43;15.30;;;9.80;;
679;SDS011;322;48.846;9.230;2023-09-08T01:51:11;14.87;;;8.67;;
679;SDS011;322;48.846;9.230;2023-09-08T01:53:39;14.40;;;8.40;;
679;SDS011;322;48.846;9.230;2023-09-08T01:56:07;16.20;;;8.90;;
679;SDS011;322;48.846;9.230;2023-09-08T01:58:35;16.80;;;9.50;;
679;SDS011;322;48.846;9.230;2023-09-08T02:01:05;14.47;;;8.50;;
679;SDS011;322;48.846;9.230;2023-09-08T02:03:33;13.50;;;8.87;;
679;SDS011;322;48.846;9.230;2023-09-08T02:06:01;17.27;;;10.80;;
679;SDS011;322;48.846;9.230;2023-09-08T02:08:29;14.13;;;9.23;;
679;SDS011;322;48.846;9.230;2023-09-08T02:10:57;14.23;;;9.23;;
679;SDS011;322;48.846;9.230;2023-09-08T02:13:25;14.17;;;8.70;;
679;SDS011;322;48.846;9.230;2023-09-08T02:15:53;14.00;;;8.53;;
679;SDS011;322;48.846;9.230;2023-09-08T02:18:22;13.80;;;8.40;;
679;SDS011;322;48.846;9.230;2023-09-08T02:20:51;12.87;;;8.17;;
679;SDS011;322;48.846;9.230;2023-09-08T02:23:19;15.10;;;9.20;;
679;SDS011;322;48.846;9.230;2023-09-08T02:25:47;17.23;;;9.20;;
679;SDS011;322;48.846;9.230;2023-09-08T02:28:15;15.50;;;8.63;;
679;SDS011;322;48.846;9.230;2023-09-08T02:30:43;16.63;;;9.53;;
679;SDS011;322;48.846;9.230;2023-09-08T02:33:11;14.97;;;8.80;;
679;SDS011;322;48.846;9.230;2023-09-08T02:35:40;16.57;;;10.10;;
679;SDS011;322;48.846;9.230;2023-09-08T02:38:08;15.77;;;9.37;;
679;SDS011;322;48.846;9.230;2023-09-08T02:40:36;16.63;;;10.07;;
679;SDS011;322;48.846;9.230;2023-09-08T02:43:04;17.37;;;9.83;;
679;SDS011;322;48.846;9.230;2023-09-08T02:45:32;15.37;;;9.67;;
679;SDS011;322;48.846;9.230;2023-09-08T02:48:02;16.03;;;10.27;;
679;SDS011;322;48.846;9.230;2023-09-08T02:50:30;15.80;;;10.80;;
679;SDS011;322;48.846;9.230;2023-09-08T02:52:59;14.70;;;9.30;;
679;SDS011;322;48.846;9.230;2023-09-08T02:55:27;18.00;;;9.23;;
679;SDS011;322;48.846;9.230;2023-09-08T02:57:55;16.27;;;8.83;;
679;SDS011;322;48.846;9.230;2023-09-08T03:00:24;15.10;;;8.77;;
679;SDS011;322;48.846;9.230;2023-09-08T03:02:52;15.40;;;9.63;;
679;SDS011;322;48.846;9.230;2023-09-08T03:05:20;17.87;;;9.27;;
679;SDS011;322;48.846;9.230;2023-09-08T03:07:48;16.10;;;9.50;;
679;SDS011;322;48.846;9.230;2023-09-08T03:10:18;14.20;;;8.27;;
679;SDS011;322;48.846;9.230;2023-09-08T03:12:46;16.00;;;9.53;;
679;SDS011;322;48.846;9.230;2023-09-08T03:15:14;15.20;;;9.43;;
679;SDS011;322;48.846;9.230;2023-09-08T03:17:42;16.67;;;9.30;;
679;SDS011;322;48.846;9.230;2023-09-08T03:20:10;15.30;;;9.67;;
679;SDS011;322;48.846;9.230;2023-09-08T03:22:39;13.30;;;8.23;;
679;SDS011;322;48.846;9.230;2023-09-08T03:25:07;15.30;;;9.80;;
679;SDS011;322;48.846;9.230;2023-09-08T03:27:37;14.63;;;8.97;;
679;SDS011;322;48.846;9.230;2023-09-08T03:30:05;18.97;;;9.30;;
679;SDS011;322;48.846;9.230;2023-09-08T03:32:34;14.23;;;8.40;;
679;SDS011;322;48.846;9.230;2023-09-08T03:35:02;15.50;;;8.20;;
679;SDS011;322;48.846;9.230;2023-09-08T03:37:32;14.73;;;8.80;;
679;SDS011;322;48.846;9.230;2023-09-08T03:40:00;15.53;;;8.33;;
679;SDS011;322;48.846;9.230;2023-09-08T03:42:31;15.20;;;9.40;;
679;SDS011;322;48.846;9.230;2023-09-08T03:45:02;16.13;;;9.00;;
679;SDS011;322;48.846;9.230;2023-09-08T03:47:31;16.30;;;8.80;;
679;SDS011;322;48.846;9.230;2023-09-08T03:49:59;13.13;;;8.20;;
679;SDS011;322;48.846;9.230;2023-09-08T03:52:27;15.90;;;8.70;;
679;SDS011;322;48.846;9.230;2023-09-08T03:54:55;13.33;;;8.47;;
679;SDS011;322;48.846;9.230;2023-09-08T03:57:23;15.63;;;9.43;;
679;SDS011;322;48.846;9.230;2023-09-08T03:59:51;14.10;;;8.40;;
679;SDS011;322;48.846;9.230;2023-09-08T04:02:20;15.27;;;9.10;;
679;SDS011;322;48.846;9.230;2023-09-08T04:04:48;14.20;;;8.57;;
679;SDS011;322;48.846;9.230;2023-09-08T04:07:16;17.10;;;9.67;;
679;SDS011;322;48.846;9.230;2023-09-08T04:09:44;16.93;;;9.43;;
679;SDS011;322;48.846;9.230;2023-09-08T04:12:13;16.40;;;9.77;;
679;SDS011;322;48.846;9.230;2023-09-08T04:14:42;15.40;;;10.63;;
679;SDS011;322;48.846;9.230;2023-09-08T04:17:10;16.07;;;9.73;;
679;SDS011;322;48.846;9.230;2023-09-08T04:19:39;17.17;;;10.60;;
679;SDS011;322;48.846;9.230;2023-09-08T04:22:07;16.30;;;10.53;;
679;SDS011;322;48.846;9.230;2023-09-08T04:24:35;14.90;;;9.23;;
679;SDS011;322;48.846;9.230;2023-09-08T04:27:03;15.83;;;9.43;;
679;SDS011;322;48.846;9.230;2023-09-08T04:29:32;18.37;;;9.87;;
679;SDS011;322;48.846;9.230;2023-09-08T04:32:00;16.93;;;9.70;;
679;SDS011;322;48.846;9.230;2023-09-08T04:34:35;14.87;;;9.33;;
679;SDS011;322;48.846;9.230;2023-09-08T04:37:05;15.20;;;9.70;;
679;SDS011;322;48.846;9.230;2023-09-08T04:39:34;17.07;;;10.60;;
679;SDS011;322;48.846;9.230;2023-09-08T04:42:03;16.17;;;10.53;;
679;SDS011;322;48.846;9.230;2023-09-08T04:44:31;22.03;;;11.37;;
679;SDS011;322;48.846;9.230;2023-09-08T04:46:59;17.50;;;9.90;;
679;SDS011;322;48.846;9.230;2023-09-08T04:49:27;17.37;;;10.90;;
679;SDS011;322;48.846;9.230;2023-09-08T04:51:56;17.17;;;10.57;;
679;SDS011;322;48.846;9.230;2023-09-08T04:54:25;15.87;;;9.73;;
679;SDS011;322;48.846;9.230;2023-09-08T04:56:56;16.00;;;9.50;;
679;SDS011;322;48.846;9.230;2023-09-08T04:59:41;18.80;;;10.30;;
679;SDS011;322;48.846;9.230;2023-09-08T05:02:09;16.40;;;10.27;;
679;SDS011;322;48.846;9.230;2023-09-08T05:04:37;16.83;;;10.30;;
679;SDS011;322;48.846;9.230;2023-09-08T05:07:05;18.83;;;10.93;;
679;SDS011;322;48.846;9.230;2023-09-08T05:09:34;17.87;;;10.50;;
679;SDS011;322;48.846;9.230;2023-09-08T05:12:03;19.53;;;11.13;;
679;SDS011;322;48.846;9.230;2023-09-08T05:14:32;14.70;;;9.53;;
679;SDS011;322;48.846;9.230;2023-09-08T05:17:00;15.20;;;9.13;;
679;SDS011;322;48.846;9.230;2023-09-08T05:19:27;16.50;;;10.20;;
679;SDS011;322;48.846;9.230;2023-09-08T05:21:55;17.73;;;10.23;;
679;SDS011;322;48.846;9.230;2023-09-08T05:24:23;17.00;;;10.77;;
679;SDS011;322;48.846;9.230;2023-09-08T05:26:54;14.77;;;9.90;;
679;SDS011;322;48.846;9.230;2023-09-08T05:29:22;16.37;;;10.20;;
679;SDS011;322;48.846;9.230;2023-09-08T05:31:50;14.83;;;9.63;;
679;SDS011;322;48.846;9.230;2023-09-08T05:34:18;16.10;;;10.20;;
679;SDS011;322;48.846;9.230;2023-09-08T05:36:47;15.30;;;10.27;;
679;SDS011;322;48.846;9.230;2023-09-08T05:39:15;18.13;;;11.67;;
679;SDS011;322;48.846;9.230;2023-09-08T05:41:45;18.67;;;11.37;;
679;SDS011;322;48.846;9.230;2023-09-08T05:44:14;16.53;;;10.73;;
679;SDS011;322;48.846;9.230;2023-09-08T05:46:42;14.80;;;9.97;;
679;SDS011;322;48.846;9.230;2023-09-08T05:49:10;16.80;;;11.00;;
679;SDS011;322;48.846;9.230;2023-09-08T05:51:38;15.20;;;9.30;;
679;SDS011;322;48.846;9.230;2023-09-08T05:54:06;26.07;;;11.47;;
679;SDS011;322;48.846;9.230;2023-09-08T05:56:36;15.30;;;8.97;;
679;SDS011;322;48.846;9.230;2023-09-08T05:59:04;16.70;;;10.07;;
679;SDS011;322;48.846;9.230;2023-09-08T06:01:34;16.03;;;10.30;;
679;SDS011;322;48.846;9.230;2023-09-08T06:04:02;16.47;;;8.50;;
679;SDS011;322;48.846;9.230;2023-09-08T06:06:30;15.47;;;9.33;;
679;SDS011;322;48.846;9.230;2023-09-08T06:08:58;14.30;;;9.93;;
679;SDS011;322;48.846;9.230;2023-09-08T06:11:26;15.57;;;9.83;;
679;SDS011;322;48.846;9.230;2023-09-08T06:13:54;19.07;;;10.60;;
679;SDS011;322;48.846;9.230;2023-09-08T06:16:25;16.33;;;10.47;;
679;SDS011;322;48.846;9.230;2023-09-08T06:18:55;15.63;;;10.23;;
679;SDS011;322;48.846;9.230;2023-09-08T06:21:23;15.40;;;9.33;;
679;SDS011;322;48.846;9.230;2023-09-08T06:23:51;18.10;;;10.57;;
679;SDS011;322;48.846;9.230;2023-09-08T06:26:19;15.60;;;8.60;;
679;SDS011;322;48.846;9.230;2023-09-08T06:28:47;16.73;;;9.70;;
679;SDS011;322;48.846;9.230;2023-09-08T06:31:15;16.03;;;9.83;;
679;SDS011;322;48.846;9.230;2023-09-08T06:33:43;17.47;;;10.13;;
679;SDS011;322;48.846;9.230;2023-09-08T06:36:12;15.27;;;9.00;;
679;SDS011;322;48.846;9.230;2023-09-08T06:38:40;15.20;;;9.07;;
679;SDS011;322;48.846;9.230;2023-09-08T06:41:09;13.53;;;8.30;;
679;SDS011;322;48.846;9.230;2023-09-08T06:43:37;14.93;;;9.73;;
679;SDS011;322;48.846;9.230;2023-09-08T06:46:05;16.47;;;8.33;;
679;SDS011;322;48.846;9.230;2023-09-08T06:48:33;14.07;;;8.43;;
679;SDS011;322;48.846;9.230;2023-09-08T06:51:01;14.60;;;8.40;;
679;SDS011;322;48.846;9.230;2023-09-08T06:53:30;17.03;;;8.93;;
679;SDS011;322;48.846;9.230;2023-09-08T06:55:59;16.90;;;9.50;;
679;SDS011;322;48.846;9.230;2023-09-08T06:58:27;15.60;;;8.40;;
679;SDS011;322;48.846;9.230;2023-09-08T07:00:55;13.20;;;8.50;;
679;SDS011;322;48.846;9.230;2023-09-08T07:03:24;15.53;;;9.13;;
679;SDS011;322;48.846;9.230;2023-09-08T07:05:53;17.00;;;9.43;;
679;SDS011;322;48.846;9.230;2023-09-08T07:08:21;16.27;;;10.80;;
679;SDS011;322;48.846;9.230;2023-09-08T07:10:52;17.40;;;10.40;;
679;SDS011;322;48.846;9.230;2023-09-08T07:13:20;16.63;;;9.77;;
679;SDS011;322;48.846;9.230;2023-09-08T07:15:49;16.70;;;8.30;;
679;SDS011;322;48.846;9.230;2023-09-08T07:18:17;13.80;;;9.27;;
679;SDS011;322;48.846;9.230;2023-09-08T07:20:46;17.13;;;9.53;;
679;SDS011;322;48.846;9.230;2023-09-08T07:23:16;15.20;;;8.93;;
679;SDS011;322;48.846;9.230;2023-09-08T07:25:45;13.30;;;7.97;;
679;SDS011;322;48.846;9.230;2023-09-08T07:28:15;16.90;;;8.53;;
679;SDS011;322;48.846;9.230;2023-09-08T07:30:44;16.17;;;9.90;;
679;SDS011;322;48.846;9.230;2023-09-08T07:33:12;13.70;;;8.10;;
679;SDS011;322;48.846;9.230;2023-09-08T07:35:40;14.43;;;8.43;;
679;SDS011;322;48.846;9.230;2023-09-08T07:38:08;17.20;;;8.70;;
679;SDS011;322;48.846;9.230;2023-09-08T07:40:36;13.40;;;8.57;;
679;SDS011;322;48.846;9.230;2023-09-08T07:43:04;12.00;;;7.33;;
679;SDS011;322;48.846;9.230;2023-09-08T07:45:34;12.10;;;6.80;;
679;SDS011;322;48.846;9.230;2023-09-08T07:48:02;15.07;;;6.80;;
679;SDS011;322;48.846;9.230;2023-09-08T07:50:30;11.80;;;6.67;;
679;SDS011;322;48.846;9.230;2023-09-08T07:52:58;12.67;;;7.13;;
679;SDS011;322;48.846;9.230;2023-09-08T07:55:26;15.03;;;7.23;;
679;SDS011;322;48.846;9.230;2023-09-08T07:57:55;13.87;;;7.60;;
679;SDS011;322;48.846;9.230;2023-09-08T08:00:23;13.40;;;7.53;;
679;SDS011;322;48.846;9.230;2023-09-08T08:02:54;15.85;;;8.02;;
679;SDS011;322;48.846;9.230;2023-09-08T08:05:23;13.30;;;7.80;;
679;SDS011;322;48.846;9.230;2023-09-08T08:07:52;13.90;;;7.97;;
679;SDS011;322;48.846;9.230;2023-09-08T08:10:20;13.10;;;7.53;;
679;SDS011;322;48.846;9.230;2023-09-08T08:12:49;14.80;;;7.80;;
679;SDS011;322;48.846;9.230;2023-09-08T08:15:19;13.67;;;7.70;;
679;SDS011;322;48.846;9.230;2023-09-08T08:17:48;14.00;;;8.47;;
679;SDS011;322;48.846;9.230;2023-09-08T08:20:17;16.40;;;9.20;;
679;SDS011;322;48.846;9.230;2023-09-08T08:22:46;12.20;;;7.60;;
679;SDS011;322;48.846;9.230;2023-09-08T08:25:14;13.30;;;8.13;;
679;SDS011;322;48.846;9.230;2023-09-08T08:27:42;12.43;;;8.30;;
679;SDS011;322;48.846;9.230;2023-09-08T08:30:11;13.23;;;8.00;;
679;SDS011;322;48.846;9.230;2023-09-08T08:32:39;12.63;;;7.43;;
679;SDS011;322;48.846;9.230;2023-09-08T08:35:07;14.23;;;7.97;;
679;SDS011;322;48.846;9.230;2023-09-08T08:37:39;14.60;;;8.27;;
679;SDS011;322;48.846;9.230;2023-09-08T08:40:09;13.67;;;7.30;;
679;SDS011;322;48.846;9.230;2023-09-08T08:42:39;12.27;;;7.93;;
679;SDS011;322;48.846;9.230;2023-09-08T08:45:08;14.10;;;7.53;;
679;SDS011;322;48.846;9.230;2023-09-08T08:47:36;10.77;;;7.03;;
679;SDS011;322;48.846;9.230;2023-09-08T08:50:05;12.43;;;7.63;;
679;SDS011;322;48.846;9.230;2023-09-08T08:52:38;11.47;;;7.57;;
679;SDS011;322;48.846;9.230;2023-09-08T08:55:07;13.30;;;7.60;;
679;SDS011;322;48.846;9.230;2023-09-08T08:57:36;13.03;;;7.73;;
679;SDS011;322;48.846;9.230;2023-09-08T09:00:05;12.50;;;7.97;;
679;SDS011;322;48.846;9.230;2023-09-08T09:02:36;12.00;;;7.50;;
679;SDS011;322;48.846;9.230;2023-09-08T09:05:06;13.03;;;7.60;;
679;SDS011;322;48.846;9.230;2023-09-08T09:07:36;12.17;;;7.50;;
679;SDS011;322;48.846;9.230;2023-09-08T09:10:06;11.13;;;6.50;;
679;SDS011;322;48.846;9.230;2023-09-08T09:12:36;12.67;;;7.60;;
679;SDS011;322;48.846;9.230;2023-09-08T09:15:05;11.20;;;6.90;;
679;SDS011;322;48.846;9.230;2023-09-08T09:17:34;10.90;;;6.67;;
679;SDS011;322;48.846;9.230;2023-09-08T09:20:12;12.90;;;6.47;;
679;SDS011;322;48.846;9.230;2023-09-08T09:22:41;15.73;;;6.37;;
679;SDS011;322;48.846;9.230;2023-09-08T09:25:11;12.17;;;6.90;;
679;SDS011;322;48.846;9.230;2023-09-08T09:27:50;10.50;;;6.73;;
679;SDS011;322;48.846;9.230;2023-09-08T09:30:19;13.10;;;6.77;;
679;SDS011;322;48.846;9.230;2023-09-08T09:32:47;12.33;;;7.43;;
679;SDS011;322;48.846;9.230;2023-09-08T09:35:16;10.60;;;7.00;;
679;SDS011;322;48.846;9.230;2023-09-08T09:37:44;10.13;;;6.17;;
679;SDS011;322;48.846;9.230;2023-09-08T09:40:16;11.20;;;6.97;;
679;SDS011;322;48.846;9.230;2023-09-08T09:42:45;12.03;;;7.10;;
679;SDS011;322;48.846;9.230;2023-09-08T09:45:17;10.70;;;7.17;;
679;SDS011;322;48.846;9.230;2023-09-08T09:47:45;10.50;;;6.20;;
679;SDS011;322;48.846;9.230;2023-09-08T09:50:13;11.27;;;7.17;;
679;SDS011;322;48.846;9.230;2023-09-08T09:52:41;11.07;;;6.60;;
679;SDS011;322;48.846;9.230;2023-09-08T09:55:16;14.23;;;7.10;;
679;SDS011;322;48.846;9.230;2023-09-08T09:57:44;14.03;;;7.00;;
679;SDS011;322;48.846;9.230;2023-09-08T10:00:13;11.30;;;6.73;;
679;SDS011;322;48.846;9.230;2023-09-08T10:02:42;11.50;;;6.10;;
679;SDS011;322;48.846;9.230;2023-09-08T10:05:11;11.90;;;7.73;;
679;SDS011;322;48.846;9.230;2023-09-08T10:07:40;11.87;;;7.63;;
679;SDS011;322;48.846;9.230;2023-09-08T10:10:09;10.30;;;6.80;;
679;SDS011;322;48.846;9.230;2023-09-08T10:12:39;11.60;;;7.40;;
679;SDS011;322;48.846;9.230;2023-09-08T10:15:11;11.87;;;7.90;;
679;SDS011;322;48.846;9.230;2023-09-08T10:17:41;12.10;;;7.17;;
679;SDS011;322;48.846;9.230;2023-09-08T10:20:12;12.73;;;7.40;;
679;SDS011;322;48.846;9.230;2023-09-08T10:22:42;12.80;;;7.43;;
679;SDS011;322;48.846;9.230;2023-09-08T10:25:11;12.83;;;6.90;;
679;SDS011;322;48.846;9.230;2023-09-08T10:27:42;12.73;;;7.43;;
679;SDS011;322;48.846;9.230;2023-09-08T10:30:11;11.40;;;7.13;;
679;SDS011;322;48.846;9.230;2023-09-08T10:32:40;11.07;;;6.97;;
679;SDS011;322;48.846;9.230;2023-09-08T10:35:09;10.67;;;7.07;;
679;SDS011;322;48.846;9.230;2023-09-08T10:37:37;10.63;;;6.60;;
679;SDS011;322;48.846;9.230;2023-09-08T10:40:19;11.60;;;6.83;;
679;SDS011;322;48.846;9.230;2023-09-08T10:42:49;9.50;;;5.90;;
679;SDS011;322;48.846;9.230;2023-09-08T10:45:33;12.80;;;7.43;;
679;SDS011;322;48.846;9.230;2023-09-08T10:48:01;11.13;;;6.70;;
679;SDS011;322;48.846;9.230;2023-09-08T10:50:31;10.40;;;7.20;;
679;SDS011;322;48.846;9.230;2023-09-08T10:53:06;11.77;;;6.13;;
679;SDS011;322;48.846;9.230;2023-09-08T10:55:39;13.47;;;7.10;;
679;SDS011;322;48.846;9.230;2023-09-08T10:58:11;10.23;;;6.90;;
679;SDS011;322;48.846;9.230;2023-09-08T11:00:44;9.20;;;5.83;;
679;SDS011;322;48.846;9.230;2023-09-08T11:03:14;10.70;;;6.57;;
679;SDS011;322;48.846;9.230;2023-09-08T11:05:54;10.87;;;6.50;;
679;SDS011;322;48.846;9.230;2023-09-08T11:08:23;12.20;;;6.30;;
679;SDS011;322;48.846;9.230;2023-09-08T11:10:54;10.30;;;5.93;;
679;SDS011;322;48.846;9.230;2023-09-08T11:13:24;11.10;;;6.63;;
679;SDS011;322;48.846;9.230;2023-09-08T11:15:52;10.87;;;6.63;;
679;SDS011;322;48.846;9.230;2023-09-08T11:18:25;10.93;;;6.60;;
679;SDS011;322;48.846;9.230;2023-09-08T11:20:53;11.10;;;6.10;;
679;SDS011;322;48.846;9.230;2023-09-08T11:23:22;11.77;;;6.43;;
679;SDS011;322;48.846;9.230;2023-09-08T11:25:52;9.70;;;6.20;;
679;SDS011;322;48.846;9.230;2023-09-08T11:28:21;12.30;;;6.80;;
679;SDS011;322;48.846;9.230;2023-09-08T11:30:51;11.60;;;6.40;;
679;SDS011;322;48.846;9.230;2023-09-08T11:33:20;11.30;;;6.67;;
679;SDS011;322;48.846;9.230;2023-09-08T11:35:51;9.00;;;5.80;;
679;SDS011;322;48.846;9.230;2023-09-08T11:38:24;10.40;;;6.83;;
679;SDS011;322;48.846;9.230;2023-09-08T11:40:53;9.93;;;5.93;;
679;SDS011;322;48.846;9.230;2023-09-08T11:43:21;10.50;;;7.00;;
679;SDS011;322;48.846;9.230;2023-09-08T11:45:51;13.40;;;7.03;;
679;SDS011;322;48.846;9.230;2023-09-08T11:48:19;9.67;;;6.60;;
679;SDS011;322;48.846;9.230;2023-09-08T11:50:48;9.63;;;6.27;;
679;SDS011;322;48.846;9.230;2023-09-08T11:53:18;10.10;;;6.00;;
679;SDS011;322;48.846;9.230;2023-09-08T11:55:47;10.20;;;6.60;;
679;SDS011;322;48.846;9.230;2023-09-08T11:58:16;10.27;;;6.33;;
679;SDS011;322;48.846;9.230;2023-09-08T12:00:45;11.93;;;6.10;;
679;SDS011;322;48.846;9.230;2023-09-08T12:03:16;10.70;;;7.20;;
679;SDS011;322;48.846;9.230;2023-09-08T12:05:45;12.20;;;6.73;;
679;SDS011;322;48.846;9.230;2023-09-08T12:08:19;10.00;;;6.30;;
679;SDS011;322;48.846;9.230;2023-09-08T12:10:47;10.97;;;6.80;;
679;SDS011;322;48.846;9.230;2023-09-08T12:13:20;10.40;;;6.53;;
679;SDS011;322;48.846;9.230;2023-09-08T12:15:48;10.37;;;6.13;;
679;SDS011;322;48.846;9.230;2023-09-08T12:18:18;10.50;;;6.07;;
679;SDS011;322;48.846;9.230;2023-09-08T12:20:46;16.23;;;7.53;;
679;SDS011;322;48.846;9.230;2023-09-08T12:23:17;19.17;;;6.50;;
679;SDS011;322;48.846;9.230;2023-09-08T12:25:46;10.20;;;6.07;;
679;SDS011;322;48.846;9.230;2023-09-08T12:28:16;12.03;;;6.87;;
679;SDS011;322;48.846;9.230;2023-09-08T12:30:45;9.60;;;6.00;;
679;SDS011;322;48.846;9.230;2023-09-08T12:33:14;10.40;;;6.97;;
679;SDS011;322;48.846;9.230;2023-09-08T12:35:43;11.00;;;6.13;;
679;SDS011;322;48.846;9.230;2023-09-08T12:38:12;10.17;;;6.30;;
679;SDS011;322;48.846;9.230;2023-09-08T12:40:40;11.50;;;6.40;;
679;SDS011;322;48.846;9.230;2023-09-08T12:43:08;10.20;;;6.73;;
679;SDS011;322;48.846;9.230;2023-09-08T12:45:53;9.50;;;6.57;;
679;SDS011;322;48.846;9.230;2023-09-08T12:48:21;10.10;;;6.47;;
679;SDS011;322;48.846;9.230;2023-09-08T12:50:51;10.97;;;6.67;;
679;SDS011;322;48.846;9.230;2023-09-08T12:53:18;10.87;;;7.10;;
679;SDS011;322;48.846;9.230;2023-09-08T12:55:49;11.00;;;6.60;;
679;SDS011;322;48.846;9.230;2023-09-08T12:58:17;11.63;;;6.47;;
679;SDS011;322;48.846;9.230;2023-09-08T13:00:45;12.47;;;6.47;;
679;SDS011;322;48.846;9.230;2023-09-08T13:03:13;11.53;;;6.27;;
679;SDS011;322;48.846;9.230;2023-09-08T13:05:41;11.20;;;6.97;;
679;SDS011;322;48.846;9.230;2023-09-08T13:08:11;10.40;;;6.20;;
679;SDS011;322;48.846;9.230;2023-09-08T13:10:41;9.47;;;6.10;;
679;SDS011;322;48.846;9.230;2023-09-08T13:13:09;11.13;;;6.87;;
679;SDS011;322;48.846;9.230;2023-09-08T13:15:37;9.90;;;6.50;;
679;SDS011;322;48.846;9.230;2023-09-08T13:18:05;11.20;;;6.40;;
679;SDS011;322;48.846;9.230;2023-09-08T13:20:33;8.67;;;5.73;;
679;SDS011;322;48.846;9.230;2023-09-08T13:23:01;10.10;;;5.80;;
679;SDS011;322;48.846;9.230;2023-09-08T13:25:31;12.53;;;6.17;;
679;SDS011;322;48.846;9.230;2023-09-08T13:27:59;10.70;;;5.97;;
679;SDS011;322;48.846;9.230;2023-09-08T13:30:26;9.53;;;5.77;;
679;SDS011;322;48.846;9.230;2023-09-08T13:32:54;10.93;;;5.53;;
679;SDS011;322;48.846;9.230;2023-09-08T13:35:23;11.80;;;5.57;;
679;SDS011;322;48.846;9.230;2023-09-08T13:37:51;8.90;;;5.67;;
679;SDS011;322;48.846;9.230;2023-09-08T13:40:19;9.10;;;5.73;;
679;SDS011;322;48.846;9.230;2023-09-08T13:42:49;10.47;;;5.90;;
679;SDS011;322;48.846;9.230;2023-09-08T13:45:17;10.60;;;5.00;;
679;SDS011;322;48.846;9.230;2023-09-08T13:47:45;9.20;;;5.40;;
679;SDS011;322;48.846;9.230;2023-09-08T13:50:13;9.43;;;5.17;;
679;SDS011;322;48.846;9.230;2023-09-08T13:52:43;9.93;;;5.47;;
679;SDS011;322;48.846;9.230;2023-09-08T13:55:13;8.33;;;5.00;;
679;SDS011;322;48.846;9.230;2023-09-08T13:57:44;9.00;;;5.70;;
679;SDS011;322;48.846;9.230;2023-09-08T14:00:16;10.37;;;5.27;;
679;SDS011;322;48.846;9.230;2023-09-08T14:02:50;8.90;;;5.30;;
679;SDS011;322;48.846;9.230;2023-09-08T14:05:24;9.17;;;5.57;;
679;SDS011;322;48.846;9.230;2023-09-08T14:07:56;10.17;;;5.50;;
679;SDS011;322;48.846;9.230;2023-09-08T14:10:40;8.90;;;4.90;;
679;SDS011;322;48.846;9.230;2023-09-08T14:13:28;9.27;;;5.33;;
679;SDS011;322;48.846;9.230;2023-09-08T14:15:58;13.50;;;5.83;;
679;SDS011;322;48.846;9.230;2023-09-08T14:18:28;9.37;;;4.90;;
679;SDS011;322;48.846;9.230;2023-09-08T14:20:56;11.63;;;5.90;;
679;SDS011;322;48.846;9.230;2023-09-08T14:23:24;10.50;;;5.70;;
679;SDS011;322;48.846;9.230;2023-09-08T14:25:52;9.70;;;5.53;;
679;SDS011;322;48.846;9.230;2023-09-08T14:28:20;9.00;;;5.20;;
679;SDS011;322;48.846;9.230;2023-09-08T14:30:49;10.37;;;5.13;;
679;SDS011;322;48.846;9.230;2023-09-08T14:33:19;9.10;;;5.40;;
679;SDS011;322;48.846;9.230;2023-09-08T14:35:47;10.07;;;6.00;;
679;SDS011;322;48.846;9.230;2023-09-08T14:38:17;8.30;;;4.80;;
679;SDS011;322;48.846;9.230;2023-09-08T14:40:53;9.50;;;5.30;;
679;SDS011;322;48.846;9.230;2023-09-08T14:43:22;10.97;;;5.33;;
679;SDS011;322;48.846;9.230;2023-09-08T14:45:50;8.70;;;5.47;;
679;SDS011;322;48.846;9.230;2023-09-08T14:48:20;10.70;;;5.43;;
679;SDS011;322;48.846;9.230;2023-09-08T14:50:48;10.40;;;5.73;;
679;SDS011;322;48.846;9.230;2023-09-08T14:53:16;11.57;;;5.57;;
679;SDS011;322;48.846;9.230;2023-09-08T14:55:44;10.00;;;5.30;;
679;SDS011;322;48.846;9.230;2023-09-08T14:58:14;11.70;;;5.70;;
679;SDS011;322;48.846;9.230;2023-09-08T15:00:42;9.67;;;5.83;;
679;SDS011;322;48.846;9.230;2023-09-08T15:03:12;10.60;;;6.00;;
679;SDS011;322;48.846;9.230;2023-09-08T15:05:43;10.37;;;5.43;;
679;SDS011;322;48.846;9.230;2023-09-08T15:08:12;9.80;;;5.43;;
679;SDS011;322;48.846;9.230;2023-09-08T15:10:40;8.63;;;5.40;;
679;SDS011;322;48.846;9.230;2023-09-08T15:13:08;9.73;;;4.90;;
679;SDS011;322;48.846;9.230;2023-09-08T15:15:36;11.80;;;5.90;;
679;SDS011;322;48.846;9.230;2023-09-08T15:18:04;10.60;;;6.33;;
679;SDS011;322;48.846;9.230;2023-09-08T15:20:32;9.00;;;5.40;;
679;SDS011;322;48.846;9.230;2023-09-08T15:23:02;9.33;;;5.70;;
679;SDS011;322;48.846;9.230;2023-09-08T15:25:33;9.97;;;5.47;;
679;SDS011;322;48.846;9.230;2023-09-08T15:28:01;9.53;;;5.73;;
679;SDS011;322;48.846;9.230;2023-09-08T15:30:29;9.80;;;6.20;;
679;SDS011;322;48.846;9.230;2023-09-08T15:33:01;10.40;;;5.80;;
679;SDS011;322;48.846;9.230;2023-09-08T15:35:31;10.20;;;6.53;;
679;SDS011;322;48.846;9.230;2023-09-08T15:37:59;12.40;;;6.07;;
679;SDS011;322;48.846;9.230;2023-09-08T15:40:28;9.70;;;5.67;;
679;SDS011;322;48.846;9.230;2023-09-08T15:42:57;11.40;;;5.80;;